Time;durP1;ratioP1;P1;durP2;ratioP2;P2;SDS_P1;SDS_P2;PMS_P1;PMS_P2;Temp;Humidity;BMP_temperature;BMP_pressure;BME280_temperature;BME280_humidity;BME280_pressure;Samples;Min_cycle;Max_cycle;Signal;HPM_P1;HPM_P2
2022/05/21 00:02:22;;;;;;;;;;;;;;;31.34;26.60;100786.75;4402423;32;19957;-69
2022/05/21 00:04:48;;;;;;;;;;;;;;;31.52;26.47;100780.53;4404449;32;20064;-69
2022/05/21 00:07:14;;;;;;;;;;;;;;;31.29;26.69;100782.66;4407432;32;20000;-69
2022/05/21 00:09:40;;;;;;;;;;;;;;;31.72;26.19;100787.47;4403651;32;20403;-69
2022/05/21 00:12:06;;;;;;;;;;;;;;;31.93;26.09;100788.00;4410396;32;19992;-69
2022/05/21 00:14:31;;;;;;;;;;;;;;;31.84;26.06;100788.63;4408607;32;19970;-69
2022/05/21 00:16:57;;;;;;;;;;;;;;;32.24;25.46;100790.19;4406121;32;20464;-69
2022/05/21 00:19:22;;;;;;;;;;;;;;;32.18;25.78;100788.88;4408532;32;20019;-69
2022/05/21 00:21:48;;;;;;;;;;;;;;;32.36;25.38;100785.50;4406133;32;19992;-69
2022/05/21 00:24:14;;;;;;;;;;;;;;;32.22;25.45;100786.34;4410809;32;19977;-69
2022/05/21 00:26:39;;;;;;;;;;;;;;;32.31;25.46;100798.12;4409265;32;19962;-69
2022/05/21 00:29:05;;;;;;;;;;;;;;;32.67;25.01;100801.44;4411397;32;19993;-69
2022/05/21 00:31:30;;;;;;;;;;;;;;;32.39;25.31;100807.63;4409641;32;19975;-69
2022/05/21 00:33:56;;;;;;;;;;;;;;;32.25;25.23;100809.25;4411739;32;20305;-69
2022/05/21 00:36:21;;;;;;;;;;;;;;;31.75;25.82;100810.34;4409398;32;19990;-70
2022/05/21 00:38:47;;;;;;;;;;;;;;;32.10;25.46;100809.31;4410065;32;19975;-69
2022/05/21 00:41:14;;;;;;;;;;;;;;;32.07;25.56;100807.56;4409516;32;20644;-69
2022/05/21 00:43:43;;;;;;;;;;;;;;;32.20;25.35;100813.13;4409431;32;20271;-69
2022/05/21 00:46:10;;;;;;;;;;;;;;;31.96;25.43;100819.63;4408694;32;20410;-69
2022/05/21 00:48:37;;;;;;;;;;;;;;;32.09;25.27;100819.38;4409182;32;20006;-69
2022/05/21 00:51:04;;;;;;;;;;;;;;;32.06;25.28;100820.56;4410731;32;19989;-69
2022/05/21 00:53:29;;;;;;;;;;;;;;;31.76;25.33;100822.75;4406235;32;20327;-69
2022/05/21 00:55:56;;;;;;;;;;;;;;;32.00;25.23;100825.06;4406757;32;19957;-69
2022/05/21 01:01:12;;;;;;;;;;;;;;;31.34;25.42;100834.06;4411711;32;20359;-69
2022/05/21 01:03:38;;;;;;;;;;;;;;;31.50;25.30;100823.97;4409874;32;19954;-69
2022/05/21 01:06:04;;;;;;;;;;;;;;;31.18;25.38;100820.84;4411514;32;19989;-69
2022/05/21 01:08:30;;;;;;;;;;;;;;;31.09;25.50;100820.66;4407646;32;20009;-69
2022/05/21 01:11:00;;;;;;;;;;;;;;;31.36;25.17;100821.84;4405119;32;20151;-69
2022/05/21 01:13:28;;;;;;;;;;;;;;;30.67;25.55;100825.97;4408727;32;19984;-69
2022/05/21 01:15:54;;;;;;;;;;;;;;;30.96;25.15;100817.94;4408604;32;20049;-69
2022/05/21 01:18:21;;;;;;;;;;;;;;;30.62;25.70;100827.72;4407905;32;20027;-69
2022/05/21 01:20:49;;;;;;;;;;;;;;;29.78;26.60;100825.00;4411067;32;20237;-69
2022/05/21 01:23:16;;;;;;;;;;;;;;;30.61;25.69;100825.38;4408701;32;20101;-69
2022/05/21 01:25:42;;;;;;;;;;;;;;;31.00;25.16;100832.84;4410220;32;20402;-69
2022/05/21 01:28:09;;;;;;;;;;;;;;;30.46;25.79;100826.13;4410234;32;19965;-69
2022/05/21 01:30:41;;;;;;;;;;;;;;;31.00;25.17;100813.28;4410415;32;19957;-69
2022/05/21 01:33:09;;;;;;;;;;;;;;;31.31;24.65;100826.50;4410831;32;20000;-69
2022/05/21 01:35:36;;;;;;;;;;;;;;;31.69;24.37;100832.28;4398305;32;20312;-69
2022/05/21 01:38:01;;;;;;;;;;;;;;;31.29;24.57;100826.28;4407385;32;20528;-69
2022/05/21 01:40:27;;;;;;;;;;;;;;;31.84;23.88;100829.38;4411132;32;20019;-69
2022/05/21 01:45:39;;;;;;;;;;;;;;;31.96;23.74;100828.34;4408502;32;20274;-69
2022/05/21 01:48:04;;;;;;;;;;;;;;;31.71;24.22;100832.47;4406977;32;19954;-69
2022/05/21 01:50:32;;;;;;;;;;;;;;;31.78;23.98;100825.88;4411059;32;19997;-69
2022/05/21 01:52:57;;;;;;;;;;;;;;;31.86;24.09;100835.38;4407981;32;20408;-69
2022/05/21 01:55:23;;;;;;;;;;;;;;;32.07;23.86;100833.78;4406230;32;19982;-69
2022/05/21 01:57:50;;;;;;;;;;;;;;;31.79;24.02;100841.97;4408368;32;19961;-69
2022/05/21 02:00:15;;;;;;;;;;;;;;;31.64;24.35;100839.88;4411556;32;19976;-69
2022/05/21 02:02:42;;;;;;;;;;;;;;;32.24;23.63;100845.53;4409239;32;20388;-69
2022/05/21 02:05:08;;;;;;;;;;;;;;;32.45;23.50;100848.19;4408269;32;20011;-69
2022/05/21 02:07:34;;;;;;;;;;;;;;;32.08;23.49;100854.91;4409078;32;20009;-69
2022/05/21 02:09:59;;;;;;;;;;;;;;;32.12;23.71;100855.31;4409460;32;19997;-69
2022/05/21 02:12:27;;;;;;;;;;;;;;;32.44;23.55;100850.34;4409045;32;20046;-69
2022/05/21 02:14:54;;;;;;;;;;;;;;;32.75;23.07;100850.16;4407690;32;19983;-69
2022/05/21 02:17:20;;;;;;;;;;;;;;;32.13;23.51;100848.09;4407277;32;19945;-69
2022/05/21 02:19:46;;;;;;;;;;;;;;;31.71;23.77;100855.75;4409219;32;20280;-69
2022/05/21 02:22:12;;;;;;;;;;;;;;;31.72;23.95;100852.25;4407454;32;19957;-69
2022/05/21 02:24:38;;;;;;;;;;;;;;;31.57;23.98;100849.34;4410467;32;19989;-69
2022/05/21 02:27:04;;;;;;;;;;;;;;;32.29;23.20;100841.66;4407801;32;20000;-69
2022/05/21 02:29:29;;;;;;;;;;;;;;;32.48;23.13;100847.00;4409514;32;19962;-69
2022/05/21 02:31:55;;;;;;;;;;;;;;;32.63;22.66;100850.66;4409421;32;20012;-69
2022/05/21 02:34:21;;;;;;;;;;;;;;;32.57;22.99;100849.31;4407415;32;19957;-69
2022/05/21 02:39:35;;;;;;;;;;;;;;;32.17;23.10;100851.38;4409523;32;20483;-69
2022/05/21 02:42:01;;;;;;;;;;;;;;;32.03;23.39;100847.19;4407087;32;20001;-69
2022/05/21 02:44:28;;;;;;;;;;;;;;;31.57;23.77;100843.53;4410239;32;20618;-69
2022/05/21 02:46:53;;;;;;;;;;;;;;;31.67;23.69;100856.16;4407880;32;20009;-69
2022/05/21 02:49:19;;;;;;;;;;;;;;;31.70;23.61;100860.03;4409591;32;20008;-69
2022/05/21 02:51:45;;;;;;;;;;;;;;;31.57;23.84;100863.91;4408096;32;19968;-69
2022/05/21 02:54:14;;;;;;;;;;;;;;;31.63;23.76;100864.47;4408621;32;19961;-69
2022/05/21 02:56:43;;;;;;;;;;;;;;;30.43;25.09;100870.06;4407168;32;19983;-69
2022/05/21 02:59:09;;;;;;;;;;;;;;;31.54;23.67;100867.22;4396581;32;19995;-69
2022/05/21 03:01:34;;;;;;;;;;;;;;;31.22;24.09;100873.56;4395466;32;20002;-69
2022/05/21 03:04:00;;;;;;;;;;;;;;;31.35;23.88;100866.84;4397513;32;19964;-69
2022/05/21 03:06:26;;;;;;;;;;;;;;;31.26;24.03;100873.97;4399100;32;19988;-69
2022/05/21 03:11:38;;;;;;;;;;;;;;;30.50;24.76;100872.22;4397467;32;20459;-69
2022/05/21 03:14:03;;;;;;;;;;;;;;;31.72;23.44;100884.25;4393959;32;20025;-69
2022/05/21 03:16:29;;;;;;;;;;;;;;;31.58;23.40;100882.16;4399135;32;19962;-69
2022/05/21 03:18:54;;;;;;;;;;;;;;;31.82;23.36;100878.66;4396089;32;19973;-69
2022/05/21 03:21:20;;;;;;;;;;;;;;;32.03;23.05;100890.84;4398370;32;20000;-69
2022/05/21 03:23:49;;;;;;;;;;;;;;;32.00;23.03;100889.13;4397239;32;19966;-69
2022/05/21 03:26:15;;;;;;;;;;;;;;;31.68;23.46;100888.91;4398735;32;20436;-69
2022/05/21 03:28:40;;;;;;;;;;;;;;;31.66;23.36;100898.22;4397225;32;20293;-69
2022/05/21 03:31:06;;;;;;;;;;;;;;;31.57;23.56;100898.81;4400433;32;19961;-69
2022/05/21 03:33:32;;;;;;;;;;;;;;;31.49;23.48;100900.97;4398479;32;19966;-70
2022/05/21 03:35:57;;;;;;;;;;;;;;;31.12;23.77;100898.00;4395841;32;19970;-70
2022/05/21 03:38:23;;;;;;;;;;;;;;;30.57;24.18;100883.88;4400350;32;20004;-70
2022/05/21 03:40:48;;;;;;;;;;;;;;;30.51;24.40;100894.87;4396870;32;19964;-70
2022/05/21 03:43:14;;;;;;;;;;;;;;;30.49;24.34;100894.69;4396767;32;20351;-70
2022/05/21 03:45:40;;;;;;;;;;;;;;;30.24;24.56;100899.41;4396741;32;20851;-70
2022/05/21 03:48:06;;;;;;;;;;;;;;;31.04;23.59;100911.75;4399122;32;20085;-70
2022/05/21 03:50:32;;;;;;;;;;;;;;;30.61;24.21;100900.91;4399845;32;20378;-70
2022/05/21 03:52:58;;;;;;;;;;;;;;;31.14;23.50;100910.59;4393556;32;19990;-70
2022/05/21 03:55:24;;;;;;;;;;;;;;;30.82;24.01;100910.31;4397362;32;20030;-70
2022/05/21 03:57:49;;;;;;;;;;;;;;;31.36;23.47;100912.81;4399756;32;19989;-70
2022/05/21 04:00:17;;;;;;;;;;;;;;;31.31;23.35;100915.88;4408597;32;19993;-70
2022/05/21 04:02:43;;;;;;;;;;;;;;;31.69;23.11;100916.69;4405792;32;19998;-70
2022/05/21 04:05:10;;;;;;;;;;;;;;;31.76;23.01;100918.81;4408493;32;19998;-69
2022/05/21 04:07:37;;;;;;;;;;;;;;;31.85;22.92;100918.25;4406891;32;19957;-69
2022/05/21 04:10:03;;;;;;;;;;;;;;;31.95;22.78;100916.28;4405849;32;20001;-69
2022/05/21 04:12:28;;;;;;;;;;;;;;;31.77;22.91;100912.41;4407507;32;19949;-69
2022/05/21 04:14:54;;;;;;;;;;;;;;;32.09;22.65;100917.63;4406172;32;19965;-69
2022/05/21 04:17:19;;;;;;;;;;;;;;;32.03;22.79;100919.97;4407693;32;19966;-70
2022/05/21 04:19:45;;;;;;;;;;;;;;;32.14;22.71;100929.06;4411444;32;19968;-70
2022/05/21 04:22:10;;;;;;;;;;;;;;;31.99;22.75;100920.34;4408556;32;19977;-69
2022/05/21 04:24:36;;;;;;;;;;;;;;;31.88;22.87;100917.88;4408110;32;20015;-69
2022/05/21 04:27:02;;;;;;;;;;;;;;;31.71;23.34;100916.84;4409138;32;20047;-69
2022/05/21 04:29:28;;;;;;;;;;;;;;;32.17;22.71;100922.06;4412527;32;20042;-69
2022/05/21 04:31:53;;;;;;;;;;;;;;;32.24;22.54;100923.44;4407414;32;19989;-69
2022/05/21 04:34:18;;;;;;;;;;;;;;;32.26;22.70;100924.38;4408440;32;20001;-69
2022/05/21 04:36:44;;;;;;;;;;;;;;;32.24;22.89;100921.25;4406772;32;20016;-69
2022/05/21 04:39:09;;;;;;;;;;;;;;;32.43;22.80;100918.72;4408551;32;20022;-69
2022/05/21 04:41:35;;;;;;;;;;;;;;;32.31;22.97;100929.19;4404152;32;20019;-69
2022/05/21 04:44:02;;;;;;;;;;;;;;;32.05;23.17;100926.75;4409119;32;20399;-70
2022/05/21 04:46:28;;;;;;;;;;;;;;;32.02;22.74;100935.88;4407097;32;20371;-69
2022/05/21 04:48:53;;;;;;;;;;;;;;;32.52;22.67;100938.50;4408839;32;20012;-69
2022/05/21 04:51:19;;;;;;;;;;;;;;;32.43;22.68;100947.09;4405879;32;20355;-69
2022/05/21 04:53:44;;;;;;;;;;;;;;;32.28;22.69;100942.03;4409108;32;19961;-69
2022/05/21 04:56:10;;;;;;;;;;;;;;;32.64;22.34;100947.56;4405663;32;20013;-69
2022/05/21 04:58:36;;;;;;;;;;;;;;;32.14;22.63;100951.56;4405713;32;19950;-69
2022/05/21 05:01:02;;;;;;;;;;;;;;;32.42;22.39;100960.09;4408654;32;20001;-69
2022/05/21 05:03:28;;;;;;;;;;;;;;;32.38;22.35;100966.31;4408935;32;20026;-69
2022/05/21 05:05:53;;;;;;;;;;;;;;;32.52;22.12;100967.62;4412237;32;19989;-69
2022/05/21 05:08:20;;;;;;;;;;;;;;;32.99;21.59;100960.28;4409469;32;20204;-69
2022/05/21 05:10:46;;;;;;;;;;;;;;;33.28;21.71;100953.50;4409198;32;20560;-69
2022/05/21 05:13:12;;;;;;;;;;;;;;;33.57;21.54;100962.66;4408009;32;20358;-69
2022/05/21 05:15:38;;;;;;;;;;;;;;;33.30;21.24;100964.56;4410386;32;20453;-69
2022/05/21 05:18:05;;;;;;;;;;;;;;;33.51;21.03;100971.66;4410832;32;20019;-69
2022/05/21 05:20:32;;;;;;;;;;;;;;;33.55;20.95;100977.06;4406337;32;19993;-69
2022/05/21 05:22:57;;;;;;;;;;;;;;;33.20;21.00;100978.25;4410619;32;20011;-69
2022/05/21 05:25:23;;;;;;;;;;;;;;;33.63;20.88;100984.41;4409189;32;19973;-69
2022/05/21 05:27:49;;;;;;;;;;;;;;;33.64;20.83;100983.03;4411914;32;19962;-69
2022/05/21 05:30:16;;;;;;;;;;;;;;;34.09;20.36;100993.59;4408197;32;20016;-69
2022/05/21 05:32:42;;;;;;;;;;;;;;;33.97;20.35;100998.38;4408846;32;20371;-69
2022/05/21 05:35:08;;;;;;;;;;;;;;;33.96;20.32;100996.84;4413543;32;19958;-69
2022/05/21 05:37:33;;;;;;;;;;;;;;;33.63;20.57;100990.25;4409011;32;20004;-69
2022/05/21 05:39:59;;;;;;;;;;;;;;;34.06;20.05;100995.56;4409854;32;20000;-69
2022/05/21 05:42:25;;;;;;;;;;;;;;;33.74;20.57;100995.59;4407789;32;20515;-69
2022/05/21 05:44:51;;;;;;;;;;;;;;;33.96;20.44;101002.66;4409691;32;20045;-69
2022/05/21 05:47:16;;;;;;;;;;;;;;;34.36;20.06;101004.06;4408185;32;20404;-69
2022/05/21 05:49:42;;;;;;;;;;;;;;;33.98;20.68;100999.91;4408792;32;19973;-69
2022/05/21 05:52:08;;;;;;;;;;;;;;;33.89;20.52;100995.50;4409909;32;19962;-69
2022/05/21 05:54:35;;;;;;;;;;;;;;;33.78;20.64;101001.03;4406508;32;20038;-70
2022/05/21 05:57:01;;;;;;;;;;;;;;;33.38;21.03;101009.84;4407148;32;20337;-70
2022/05/21 05:59:58;;;;;;;;;;;;;;;32.81;21.69;101008.12;4413063;32;20393;-70
2022/05/21 06:04:58;;;;;;;;;;;;;;;32.68;21.42;100991.69;4414444;32;20298;-69
2022/05/21 06:07:24;;;;;;;;;;;;;;;32.14;21.91;101001.88;4415709;32;20416;-69
2022/05/21 06:09:49;;;;;;;;;;;;;;;31.24;22.65;100990.09;4411631;32;19982;-69
2022/05/21 06:12:15;;;;;;;;;;;;;;;31.61;22.40;100992.34;4412790;32;19958;-69
2022/05/21 06:14:41;;;;;;;;;;;;;;;32.53;21.53;100991.72;4412810;32;19958;-69
2022/05/21 06:17:07;;;;;;;;;;;;;;;32.56;21.57;100999.28;4412294;32;19953;-69
2022/05/21 06:19:32;;;;;;;;;;;;;;;32.39;21.86;101002.81;4416515;32;20045;-69
2022/05/21 06:21:59;;;;;;;;;;;;;;;32.65;21.43;101011.09;4412447;32;20295;-69
2022/05/21 06:24:24;;;;;;;;;;;;;;;32.43;21.67;101008.28;4415311;32;20345;-69
2022/05/21 06:26:50;;;;;;;;;;;;;;;33.40;20.69;101015.09;4413474;32;19977;-69
2022/05/21 06:29:16;;;;;;;;;;;;;;;32.94;21.16;101016.69;4411388;32;20408;-69
2022/05/21 06:31:42;;;;;;;;;;;;;;;32.87;20.85;101029.13;4414719;32;20529;-70
2022/05/21 06:34:08;;;;;;;;;;;;;;;32.75;20.96;101025.84;4414964;32;19954;-70
2022/05/21 06:36:33;;;;;;;;;;;;;;;32.80;21.02;101024.09;4412153;32;20005;-70
2022/05/21 06:38:59;;;;;;;;;;;;;;;33.40;20.48;101018.81;4414376;32;19961;-70
2022/05/21 06:41:26;;;;;;;;;;;;;;;33.35;20.35;101013.97;4412085;32;19989;-70
2022/05/21 06:43:52;;;;;;;;;;;;;;;33.72;19.89;101015.88;4414101;32;19973;-70
2022/05/21 06:46:17;;;;;;;;;;;;;;;33.75;19.78;101013.91;4415719;32;20480;-70
2022/05/21 06:48:44;;;;;;;;;;;;;;;34.00;19.78;101012.56;4414985;32;20116;-70
2022/05/21 06:51:09;;;;;;;;;;;;;;;33.82;19.96;101013.84;4414605;32;19977;-70
2022/05/21 06:53:36;;;;;;;;;;;;;;;33.64;19.71;101021.00;4411175;32;20314;-70
2022/05/21 06:56:05;;;;;;;;;;;;;;;33.42;19.89;101016.06;4414040;32;20001;-70
2022/05/21 06:58:31;;;;;;;;;;;;;;;33.43;19.78;101020.53;4410039;32;19968;-70
2022/05/21 07:00:56;;;;;;;;;;;;;;;33.89;19.35;101018.09;4410520;32;20001;-70
2022/05/21 07:03:22;;;;;;;;;;;;;;;33.30;19.78;101022.91;4406901;32;19958;-70
2022/05/21 07:08:33;;;;;;;;;;;;;;;33.91;19.34;101039.50;4409933;32;20035;-70
2022/05/21 07:10:59;;;;;;;;;;;;;;;34.80;18.91;101038.47;4407679;32;20354;-70
2022/05/21 07:13:25;;;;;;;;;;;;;;;35.03;18.77;101048.53;4391586;32;20394;-70
2022/05/21 07:15:50;;;;;;;;;;;;;;;34.86;18.84;101033.94;4388346;32;20366;-70
2022/05/21 07:18:17;;;;;;;;;;;;;;;35.15;18.49;101046.63;4407540;32;19957;-70
2022/05/21 07:20:43;;;;;;;;;;;;;;;34.59;18.41;101043.94;4408709;32;20739;-70
2022/05/21 07:23:08;;;;;;;;;;;;;;;35.23;17.99;101047.31;4405206;32;20020;-70
2022/05/21 07:25:35;;;;;;;;;;;;;;;34.89;18.19;101047.34;4408427;32;20013;-70
2022/05/21 07:28:01;;;;;;;;;;;;;;;34.88;18.26;101047.97;4404197;32;20218;-70
2022/05/21 07:30:27;;;;;;;;;;;;;;;35.06;18.23;101046.56;4410014;32;20355;-70
2022/05/21 07:32:55;;;;;;;;;;;;;;;35.23;18.32;101047.31;4404923;32;20307;-70
2022/05/21 07:35:22;;;;;;;;;;;;;;;35.29;17.99;101041.19;4407030;32;20026;-70
2022/05/21 07:37:48;;;;;;;;;;;;;;;35.43;17.76;101042.41;4408552;32;20445;-70
2022/05/21 07:40:14;;;;;;;;;;;;;;;35.05;18.07;101042.06;4406715;32;20005;-70
2022/05/21 07:42:40;;;;;;;;;;;;;;;34.97;17.92;101042.16;4405816;32;20462;-70
2022/05/21 07:45:08;;;;;;;;;;;;;;;34.34;18.49;101046.91;4409670;32;19972;-70
2022/05/21 07:47:33;;;;;;;;;;;;;;;35.02;18.16;101046.22;4409331;32;20003;-70
2022/05/21 07:49:59;;;;;;;;;;;;;;;35.96;17.33;101051.91;4413394;32;20353;-70
2022/05/21 07:52:25;;;;;;;;;;;;;;;35.87;17.35;101057.75;4408159;32;19996;-68
2022/05/21 07:54:50;;;;;;;;;;;;;;;35.31;17.87;101071.37;4411336;32;19989;-69
2022/05/21 07:57:16;;;;;;;;;;;;;;;35.44;17.45;101068.13;4405981;32;20088;-69
2022/05/21 07:59:42;;;;;;;;;;;;;;;35.78;17.38;101070.16;4407072;32;20022;-69
2022/05/21 08:02:12;;;;;;;;;;;;;;;35.49;17.74;101066.31;4407128;32;19996;-69
2022/05/21 08:04:37;;;;;;;;;;;;;;;34.85;18.10;101063.75;4409400;32;19946;-69
2022/05/21 08:07:03;;;;;;;;;;;;;;;35.01;17.78;101068.88;4405850;32;19994;-69
2022/05/21 08:09:28;;;;;;;;;;;;;;;35.40;17.31;101070.72;4410973;32;19953;-69
2022/05/21 08:11:54;;;;;;;;;;;;;;;35.08;17.63;101073.84;4405149;32;20064;-69
2022/05/21 08:14:20;;;;;;;;;;;;;;;34.42;18.20;101074.72;4405550;32;19992;-69
2022/05/21 08:16:45;;;;;;;;;;;;;;;34.14;18.37;101080.97;4405890;32;19958;-69
2022/05/21 08:19:12;;;;;;;;;;;;;;;34.60;18.23;101077.69;4409139;32;20073;-69
2022/05/21 08:21:38;;;;;;;;;;;;;;;35.01;18.08;101071.00;4403131;32;20000;-69
2022/05/21 08:26:56;;;;;;;;;;;;;;;35.29;17.69;101082.94;4405127;32;20017;-70
2022/05/21 08:29:22;;;;;;;;;;;;;;;34.53;18.41;101082.22;4408484;32;20000;-70
2022/05/21 08:31:50;;;;;;;;;;;;;;;34.65;18.47;101082.47;4410025;32;19997;-70
2022/05/21 08:34:15;;;;;;;;;;;;;;;35.54;17.76;101085.75;4408728;32;19957;-70
2022/05/21 08:36:41;;;;;;;;;;;;;;;35.45;17.89;101089.38;4407396;32;20058;-70
2022/05/21 08:39:09;;;;;;;;;;;;;;;34.82;18.14;101086.22;4393540;32;20012;-70
2022/05/21 08:41:35;;;;;;;;;;;;;;;34.86;18.36;101089.50;4415445;32;20194;-70
2022/05/21 08:44:04;;;;;;;;;;;;;;;35.18;18.20;101085.63;4409849;32;20347;-69
2022/05/21 08:49:06;;;;;;;;;;;;;;;36.17;17.34;101086.56;3948255;32;15821181;-70
2022/05/21 08:51:35;;;;;;;;;;;;;;;36.17;17.34;101086.56;4427229;32;19964;-70
2022/05/21 08:54:03;;;;;;;;;;;;;;;35.96;17.66;101095.88;4430753;32;20451;-70
2022/05/21 08:56:29;;;;;;;;;;;;;;;35.51;17.83;101090.66;4411011;32;20009;-70
2022/05/21 08:58:57;;;;;;;;;;;;;;;36.13;17.34;101089.94;4428444;32;19961;-70
2022/05/21 09:01:24;;;;;;;;;;;;;;;36.75;16.60;101090.47;4426067;32;20028;-70
2022/05/21 09:03:51;;;;;;;;;;;;;;;36.62;16.55;101090.91;4429784;32;19979;-70
2022/05/21 09:06:28;;;;;;;;;;;;;;;36.48;16.71;101099.34;4428133;32;19997;-70
2022/05/21 09:14:26;;;;;;;;;;;;;;;37.42;15.72;101103.00;3950901;32;15722579;-70
2022/05/21 09:16:54;;;;;;;;;;;;;;;37.42;15.72;101103.00;4426051;32;19957;-70
2022/05/21 09:19:21;;;;;;;;;;;;;;;35.95;17.11;101096.47;4426136;32;19980;-70
2022/05/21 09:21:47;;;;;;;;;;;;;;;36.90;16.29;101087.25;4429021;32;19990;-70
2022/05/21 09:24:32;;;;;;;;;;;;;;;36.22;16.50;101080.41;4428748;32;19957;-70
2022/05/21 09:26:57;;;;;;;;;;;;;;;36.38;16.65;101080.94;4427364;32;19966;-70
2022/05/21 09:29:26;;;;;;;;;;;;;;;35.78;16.99;101078.94;4424856;32;20030;-70
2022/05/21 09:31:54;;;;;;;;;;;;;;;36.35;16.57;101082.16;4426405;32;19972;-70
2022/05/21 09:34:28;;;;;;;;;;;;;;;36.15;16.79;101081.31;4426804;32;20023;-70
2022/05/21 09:36:55;;;;;;;;;;;;;;;35.34;17.26;101081.91;4424146;32;20033;-70
2022/05/21 09:39:38;;;;;;;;;;;;;;;34.61;17.76;101088.00;4425847;32;20009;-70
2022/05/21 09:47:29;;;;;;;;;;;;;;;35.86;16.85;101088.44;4428561;32;20001;-70
2022/05/21 09:50:00;;;;;;;;;;;;;;;36.27;16.49;101086.59;4431243;32;19984;-70
2022/05/21 09:52:28;;;;;;;;;;;;;;;36.88;15.82;101092.97;4426907;32;20044;-70
2022/05/21 09:54:54;;;;;;;;;;;;;;;37.08;15.75;101097.44;4428093;32;20322;-70
2022/05/21 09:57:26;;;;;;;;;;;;;;;36.92;15.89;101085.25;4426770;32;19961;-69
2022/05/21 10:00:01;;;;;;;;;;;;;;;37.52;15.34;101094.97;4430038;32;19997;-69
2022/05/21 10:02:35;;;;;;;;;;;;;;;37.68;15.24;101091.09;4426016;32;19985;-69
2022/05/21 10:05:01;;;;;;;;;;;;;;;37.52;15.28;101081.03;4427855;32;20037;-69
2022/05/21 10:13:06;;;;;;;;;;;;;;;38.32;14.81;101103.09;4429077;32;19957;-69
2022/05/21 10:15:35;;;;;;;;;;;;;;;37.89;15.03;101102.91;4425940;32;19983;-71
2022/05/21 10:18:11;;;;;;;;;;;;;;;37.24;15.61;101107.53;4426902;32;20472;-71
2022/05/21 10:20:41;;;;;;;;;;;;;;;36.96;15.91;101111.94;4428741;32;19957;-69
2022/05/21 10:23:10;;;;;;;;;;;;;;;36.62;16.12;101109.25;4427741;32;19953;-69
2022/05/21 10:28:30;;;;;;;;;;;;;;;38.25;15.40;101110.69;3962717;31;15718505;-69
2022/05/21 10:31:00;;;;;;;;;;;;;;;38.25;15.40;101110.69;4437770;32;20443;-69
2022/05/21 10:36:22;;;;;;;;;;;;;;;39.19;14.35;101101.91;3959929;31;15716564;-70
2022/05/21 10:44:19;;;;;;;;;;;;;;;40.14;13.86;101112.72;3964541;31;15715721;-70
2022/05/21 10:46:51;;;;;;;;;;;;;;;40.14;13.86;101112.72;4439164;32;19988;-70
2022/05/21 10:49:36;;;;;;;;;;;;;;;39.79;13.99;101114.06;4438635;32;20007;-70
2022/05/21 10:52:08;;;;;;;;;;;;;;;39.87;14.02;101111.69;4440590;32;20011;-70
2022/05/21 10:57:31;;;;;;;;;;;;;;;40.98;13.56;101102.56;3950504;32;15723274;-71
2022/05/21 11:00:17;;;;;;;;;;;;;;;40.98;13.56;101102.56;4426385;32;19961;-70
2022/05/21 11:02:56;;;;;;;;;;;;;;;41.47;13.16;101106.22;4425960;32;20006;-71
2022/05/21 11:10:43;;;;;;;;;;;;;;;41.43;12.72;101110.50;3950639;32;15724884;-70
2022/05/21 11:13:20;;;;;;;;;;;;;;;41.43;12.72;101110.50;4425719;32;19970;-71
2022/05/21 11:18:29;;;;;;;;;;;;;;;40.72;13.27;101105.38;3950027;32;15729536;-70
2022/05/21 11:23:58;;;;;;;;;;;;;;;39.33;14.33;101100.69;3948798;32;15723549;-70
2022/05/21 11:26:43;;;;;;;;;;;;;;;39.33;14.33;101100.69;4426002;32;20004;-70
2022/05/21 11:37:20;;;;;;;;;;;;;;;38.15;15.61;101104.09;4431423;32;19960;-71
2022/05/21 11:39:46;;;;;;;;;;;;;;;36.32;16.96;101100.97;4432800;32;19989;-71
2022/05/21 11:42:14;;;;;;;;;;;;;;;37.43;16.34;101096.50;4432370;32;20014;-70
2022/05/21 11:55:19;;;;;;;;;;;;;;;39.22;14.81;101089.66;3968720;32;15722580;-71
2022/05/21 12:11:18;;;;;;;;;;;;;;;39.89;14.25;101073.47;3961207;31;15719376;-70
2022/05/21 12:14:04;;;;;;;;;;;;;;;39.89;14.25;101073.47;4448624;32;20007;-70
2022/05/21 12:19:07;;;;;;;;;;;;;;;39.71;14.52;101073.03;3960235;31;15716202;-71
2022/05/21 12:26:45;;;;;;;;;;;;;;;40.51;14.03;101069.38;3951491;32;15721593;-71
2022/05/21 12:31:50;;;;;;;;;;;;;;;39.76;14.60;101074.06;3951705;32;15727778;-70
2022/05/21 12:34:35;;;;;;;;;;;;;;;39.76;14.60;101074.06;4425901;32;19997;-69
2022/05/21 12:37:18;;;;;;;;;;;;;;;40.11;14.28;101063.09;4424159;32;20291;-69
2022/05/21 12:42:25;;;;;;;;;;;;;;;38.55;14.17;101065.81;3949473;32;15721362;-70
2022/05/21 12:44:50;;;;;;;;;;;;;;;38.80;14.08;101065.34;4426260;32;19980;-70
2022/05/21 12:47:33;;;;;;;;;;;;;;;38.46;14.37;101063.69;4427761;32;19989;-70
2022/05/21 12:50:01;;;;;;;;;;;;;;;38.57;14.34;101065.19;4426603;32;20404;-70
2022/05/21 12:52:32;;;;;;;;;;;;;;;38.62;14.12;101067.78;4425584;32;19961;-70
2022/05/21 12:55:18;;;;;;;;;;;;;;;38.08;14.39;101075.62;4427209;32;20415;-70
2022/05/21 12:57:44;;;;;;;;;;;;;;;37.94;14.55;101075.38;4427626;32;19953;-70
2022/05/21 13:00:10;;;;;;;;;;;;;;;38.75;13.88;101069.41;4425085;32;19977;-70
2022/05/21 13:02:44;;;;;;;;;;;;;;;39.32;13.08;101072.66;4424029;32;20342;-70
2022/05/21 13:05:17;;;;;;;;;;;;;;;37.98;14.08;101080.78;4428418;32;19953;-70
2022/05/21 13:07:43;;;;;;;;;;;;;;;38.75;13.52;101070.19;4426684;32;20102;-70
2022/05/21 13:10:18;;;;;;;;;;;;;;;39.41;12.92;101068.09;4427796;32;20001;-70
2022/05/21 13:12:46;;;;;;;;;;;;;;;39.78;12.64;101074.97;4427282;32;20023;-70
2022/05/21 13:15:12;;;;;;;;;;;;;;;39.94;12.52;101070.16;4428252;32;19986;-70
2022/05/21 13:17:46;;;;;;;;;;;;;;;40.72;11.88;101071.44;4425183;32;19980;-70
2022/05/21 13:20:31;;;;;;;;;;;;;;;40.71;11.99;101058.84;4426674;32;20008;-70
2022/05/21 13:23:03;;;;;;;;;;;;;;;41.11;11.91;101061.31;4425578;32;19993;-70
2022/05/21 13:25:29;;;;;;;;;;;;;;;41.39;11.82;101068.13;4423556;32;19949;-70
2022/05/21 13:27:56;;;;;;;;;;;;;;;42.47;11.26;101077.28;4427811;32;19993;-71
2022/05/21 13:30:27;;;;;;;;;;;;;;;41.48;11.87;101076.06;4425907;32;19988;-70
2022/05/21 13:32:54;;;;;;;;;;;;;;;41.29;11.69;101065.34;4425819;32;20411;-70
2022/05/21 13:35:22;;;;;;;;;;;;;;;40.88;11.94;101063.53;4426633;32;20344;-70
2022/05/21 13:37:50;;;;;;;;;;;;;;;40.42;12.60;101064.41;4427133;32;19945;-70
2022/05/21 13:43:05;;;;;;;;;;;;;;;39.76;12.90;101059.34;3949860;32;15722597;-71
2022/05/21 13:45:32;;;;;;;;;;;;;;;39.76;12.90;101059.34;4430332;32;19997;-71
2022/05/21 13:48:15;;;;;;;;;;;;;;;38.54;13.14;101051.75;4430503;32;19996;-71
2022/05/21 13:50:43;;;;;;;;;;;;;;;39.53;12.52;101054.94;4430427;32;20369;-71
2022/05/21 13:53:09;;;;;;;;;;;;;;;39.56;12.49;101052.88;4430225;32;20410;-71
2022/05/21 13:55:35;;;;;;;;;;;;;;;41.23;11.62;101062.03;4432522;32;20026;-71
2022/05/21 13:58:20;;;;;;;;;;;;;;;40.87;11.53;101053.94;4428168;32;20408;-71
2022/05/21 14:00:46;;;;;;;;;;;;;;;41.52;11.23;101055.59;4429512;32;20000;-71
2022/05/21 14:03:32;;;;;;;;;;;;;;;41.31;11.25;101050.69;4430625;32;19996;-71
2022/05/21 14:06:01;;;;;;;;;;;;;;;41.50;11.27;101043.66;4431035;32;20040;-71
2022/05/21 14:08:30;;;;;;;;;;;;;;;41.52;11.46;101045.97;4427004;32;20414;-71
2022/05/21 14:10:58;;;;;;;;;;;;;;;41.47;11.40;101056.75;4433913;32;20037;-71
2022/05/21 14:13:28;;;;;;;;;;;;;;;40.63;12.18;101048.72;4428914;32;20022;-71
2022/05/21 14:15:55;;;;;;;;;;;;;;;40.65;12.20;101037.81;4430715;32;20012;-71
2022/05/21 14:18:36;;;;;;;;;;;;;;;40.91;12.22;101033.50;4427431;32;20429;-71
2022/05/21 14:21:05;;;;;;;;;;;;;;;41.27;11.99;101040.81;4431143;32;19993;-71
2022/05/21 14:28:46;;;;;;;;;;;;;;;47.61;8.46;101046.38;3950209;32;15721533;-69
2022/05/21 14:31:31;;;;;;;;;;;;;;;46.76;8.37;101050.84;4428345;32;20419;-70
2022/05/21 14:33:58;;;;;;;;;;;;;;;46.28;8.73;101055.75;4428070;32;20318;-69
2022/05/21 14:36:28;;;;;;;;;;;;;;;44.44;9.62;101051.66;4425352;32;19969;-70